createdAt,value
2022-12-26T00:01:54.217Z,99434.22
2022-12-26T00:04:52.150Z,99435.09
2022-12-26T00:07:15.629Z,99429.09
2022-12-26T00:09:44.181Z,99428.28
2022-12-26T00:12:12.648Z,99426.50
2022-12-26T00:14:42.883Z,99423.94
2022-12-26T00:17:11.643Z,99428.28
2022-12-26T00:19:40.293Z,99440.38
2022-12-26T00:22:09.064Z,99439.50
2022-12-26T00:24:37.861Z,99442.09
2022-12-26T00:27:06.262Z,99427.41
2022-12-26T00:29:34.803Z,99425.69
2022-12-26T00:32:05.125Z,99429.13
2022-12-26T00:34:33.634Z,99423.94
2022-12-26T00:37:02.384Z,99424.84
2022-12-26T00:39:30.973Z,99424.84
2022-12-26T00:41:59.424Z,99422.25
2022-12-26T00:44:28.098Z,99417.13
2022-12-26T00:46:56.671Z,99418.00
2022-12-26T00:49:27.967Z,99413.66
2022-12-26T00:51:56.217Z,99420.66
2022-12-26T00:54:24.698Z,99406.00
2022-12-26T00:56:53.160Z,99418.09
2022-12-26T00:59:21.542Z,99411.22
2022-12-26T01:01:50.343Z,99423.28
2022-12-26T01:04:19.525Z,99421.53
2022-12-26T01:06:49.394Z,99426.75
2022-12-26T01:09:18.605Z,99438.81
2022-12-26T01:11:47.112Z,99439.69
2022-12-26T01:14:18.534Z,99447.44
2022-12-26T01:16:48.393Z,99445.75
2022-12-26T01:19:16.873Z,99444.00
2022-12-26T01:21:48.159Z,99460.41
2022-12-26T01:24:18.270Z,99464.72
2022-12-26T01:26:46.593Z,99461.28
2022-12-26T01:29:15.134Z,99450.94
2022-12-26T01:31:43.705Z,99460.41
2022-12-26T01:34:12.552Z,99453.50
2022-12-26T01:36:40.917Z,99462.13
2022-12-26T01:39:09.811Z,99456.97
2022-12-26T01:41:40.244Z,99481.16
2022-12-26T01:45:00.785Z,99490.59
2022-12-26T01:47:42.227Z,99480.19
2022-12-26T01:50:26.185Z,99488.84
2022-12-26T01:52:55.164Z,99474.94
2022-12-26T01:55:24.499Z,99485.38
2022-12-26T01:58:01.004Z,99493.19
2022-12-26T02:00:30.479Z,99481.06
2022-12-26T02:03:17.254Z,99481.13
2022-12-26T02:05:45.924Z,99487.13
2022-12-26T02:08:20.287Z,99485.47
2022-12-26T02:10:55.652Z,99482.03
2022-12-26T02:13:26.430Z,99487.22
2022-12-26T02:15:54.892Z,99490.63
2022-12-26T02:18:23.292Z,99486.41
2022-12-26T02:21:09.439Z,99499.41
2022-12-26T02:24:38.051Z,99502.78
2022-12-26T02:27:34.564Z,99502.69
2022-12-26T02:30:39.127Z,99505.25
2022-12-26T02:33:38.641Z,99497.50
2022-12-26T02:37:02.908Z,99499.13
2022-12-26T02:39:55.657Z,99488.78
2022-12-26T02:42:36.669Z,99499.13
2022-12-26T02:45:35.418Z,99507.72
2022-12-26T02:48:14.643Z,99499.06
2022-12-26T02:51:14.510Z,99500.81
2022-12-26T02:54:09.479Z,99515.47
2022-12-26T02:56:57.603Z,99500.69
2022-12-26T02:59:55.652Z,99491.22
2022-12-26T03:02:50.273Z,99498.16
2022-12-26T03:05:47.144Z,99502.47
2022-12-26T03:08:41.747Z,99506.75
2022-12-26T03:11:28.204Z,99504.09
2022-12-26T03:14:06.979Z,99504.09
2022-12-26T03:16:53.655Z,99516.16
2022-12-26T03:19:23.746Z,99512.75
2022-12-26T03:21:54.565Z,99523.19
2022-12-26T03:24:24.725Z,99514.59
2022-12-26T03:26:54.943Z,99512.81
2022-12-26T03:29:42.724Z,99508.47
2022-12-26T03:32:13.865Z,99516.16
2022-12-26T03:34:44.677Z,99504.00
2022-12-26T03:37:47.921Z,99506.53
2022-12-26T03:40:59.551Z,99509.06
2022-12-26T03:44:06.300Z,99515.06
2022-12-26T03:47:07.125Z,99527.97
2022-12-26T03:49:59.808Z,99527.91
2022-12-26T03:52:59.131Z,99522.66
2022-12-26T03:55:54.476Z,99526.13
2022-12-26T03:58:46.258Z,99514.91
2022-12-26T04:01:38.680Z,99524.38
2022-12-26T04:04:29.327Z,99529.53
2022-12-26T04:07:23.847Z,99518.22
2022-12-26T04:10:19.175Z,99521.69
2022-12-26T04:13:08.220Z,99537.97
2022-12-26T04:16:01.975Z,99543.22
2022-12-26T04:18:55.905Z,99545.00
2022-12-26T04:21:50.303Z,99545.00
2022-12-26T04:24:42.348Z,99538.09
2022-12-26T04:27:33.442Z,99546.75
2022-12-26T04:30:19.357Z,99559.56
2022-12-26T04:33:09.019Z,99580.28
2022-12-26T04:36:03.682Z,99566.47
2022-12-26T04:38:55.710Z,99563.94
2022-12-26T04:41:43.835Z,99556.97
2022-12-26T04:44:15.929Z,99551.81
2022-12-26T04:46:47.817Z,99553.56
2022-12-26T04:49:36.337Z,99553.56
2022-12-26T04:52:09.238Z,99553.56
2022-12-26T04:54:37.924Z,99557.88
2022-12-26T04:57:07.415Z,99555.34
2022-12-26T04:59:37.267Z,99564.75
2022-12-26T05:02:23.480Z,99571.69
2022-12-26T05:05:09.536Z,99576.81
2022-12-26T05:07:56.626Z,99563.84
2022-12-26T05:10:29.200Z,99568.13
2022-12-26T05:12:57.697Z,99576.78
2022-12-26T05:15:28.596Z,99562.06
2022-12-26T05:18:26.276Z,99564.66
2022-12-26T05:21:11.831Z,99558.53
2022-12-26T05:23:57.788Z,99575.84
2022-12-26T05:26:43.990Z,99574.88
2022-12-26T05:29:12.969Z,99568.78
2022-12-26T05:31:43.005Z,99577.38
2022-12-26T05:34:12.739Z,99566.19
2022-12-26T05:36:47.163Z,99578.31
2022-12-26T05:39:15.941Z,99574.78
2022-12-26T05:41:44.771Z,99579.13
2022-12-26T05:44:13.781Z,99579.97
2022-12-26T05:46:44.379Z,99578.19
2022-12-26T05:49:13.131Z,99567.00
2022-12-26T05:51:41.763Z,99582.41
2022-12-26T05:54:10.164Z,99574.66
2022-12-26T05:56:40.162Z,99576.34
2022-12-26T05:59:10.942Z,99583.25
2022-12-26T06:01:39.476Z,99591.03
2022-12-26T06:04:09.498Z,99587.59
2022-12-26T06:06:38.694Z,99592.66
2022-12-26T06:09:07.670Z,99595.31
2022-12-26T06:11:36.144Z,99592.66
2022-12-26T06:14:04.941Z,99589.25
2022-12-26T06:16:33.621Z,99575.44
2022-12-26T06:19:02.114Z,99574.47
2022-12-26T06:21:32.118Z,99568.41
2022-12-26T06:24:00.713Z,99571.78
2022-12-26T06:26:29.369Z,99566.53
2022-12-26T06:28:58.081Z,99566.53
2022-12-26T06:31:27.048Z,99558.78
2022-12-26T06:34:01.426Z,99549.31
2022-12-26T06:36:32.865Z,99566.53
2022-12-26T06:39:01.750Z,99564.78
2022-12-26T06:41:30.280Z,99569.13
2022-12-26T06:43:59.038Z,99569.06
2022-12-26T06:46:27.665Z,99564.78
2022-12-26T06:48:56.231Z,99571.72
2022-12-26T06:51:26.967Z,99573.50
2022-12-26T06:53:57.159Z,99565.72
2022-12-26T06:56:28.512Z,99568.41
2022-12-26T06:58:58.365Z,99573.59
2022-12-26T07:01:28.279Z,99594.31
2022-12-26T07:03:58.000Z,99578.72
2022-12-26T07:06:29.193Z,99588.25
2022-12-26T07:09:02.369Z,99582.25
2022-12-26T07:11:34.061Z,99578.75
2022-12-26T07:14:02.864Z,99581.34
2022-12-26T07:16:31.582Z,99587.50
2022-12-26T07:19:01.098Z,99609.09
2022-12-26T07:21:36.317Z,99609.91
2022-12-26T07:24:17.412Z,99622.84
2022-12-26T07:26:47.311Z,99633.22
2022-12-26T07:29:17.138Z,99638.47
2022-12-26T07:31:45.960Z,99634.09
2022-12-26T07:34:14.669Z,99629.72
2022-12-26T07:36:43.531Z,99629.81
2022-12-26T07:39:16.040Z,99627.28
2022-12-26T07:41:59.552Z,99650.50
2022-12-26T07:44:30.126Z,99634.09
2022-12-26T07:47:00.142Z,99632.47
2022-12-26T07:49:28.716Z,99634.19
2022-12-26T07:51:57.309Z,99636.78
2022-12-26T07:54:28.938Z,99656.69
2022-12-26T07:57:21.718Z,99647.22
2022-12-26T07:59:53.283Z,99660.09
2022-12-26T08:02:24.205Z,99653.16
2022-12-26T08:04:53.371Z,99654.03
2022-12-26T08:07:22.113Z,99645.44
2022-12-26T08:09:52.432Z,99658.34
2022-12-26T08:12:21.653Z,99654.00
2022-12-26T08:14:50.476Z,99657.47
2022-12-26T08:17:19.111Z,99673.91
2022-12-26T08:19:47.611Z,99671.34
2022-12-26T08:22:15.970Z,99671.28
2022-12-26T08:24:44.540Z,99671.28
2022-12-26T08:27:14.751Z,99673.88
2022-12-26T08:29:43.656Z,99666.94
2022-12-26T08:32:12.110Z,99685.06
2022-12-26T08:34:40.477Z,99664.34
2022-12-26T08:37:09.589Z,99675.53
2022-12-26T08:39:38.011Z,99680.69
2022-12-26T08:42:06.784Z,99671.22
2022-12-26T08:44:36.693Z,99678.19
2022-12-26T08:47:05.365Z,99679.06
2022-12-26T08:49:33.998Z,99679.91
2022-12-26T08:52:02.493Z,99686.84
2022-12-26T08:54:31.047Z,99684.25
2022-12-26T08:56:59.971Z,99689.41
2022-12-26T08:59:29.598Z,99692.00
2022-12-26T09:01:59.743Z,99692.03
2022-12-26T09:04:28.701Z,99693.81
2022-12-26T09:06:57.140Z,99699.88
2022-12-26T09:09:25.739Z,99700.78
2022-12-26T09:11:54.123Z,99701.66
2022-12-26T09:14:22.681Z,99711.06
2022-12-26T09:16:51.877Z,99715.31
2022-12-26T09:19:23.027Z,99723.91
2022-12-26T09:22:14.313Z,99704.81
2022-12-26T09:24:42.777Z,99703.03
2022-12-26T09:27:11.916Z,99714.28
2022-12-26T09:29:40.558Z,99703.03
2022-12-26T09:32:09.664Z,99711.63
2022-12-26T09:34:40.171Z,99715.94
2022-12-26T09:37:08.611Z,99728.00
2022-12-26T09:39:37.267Z,99738.22
2022-12-26T09:42:16.837Z,99734.81
2022-12-26T09:44:55.228Z,99738.22
2022-12-26T09:47:33.839Z,99740.00
2022-12-26T09:50:13.424Z,99743.41
2022-12-26T09:52:47.836Z,99740.06
2022-12-26T09:55:31.434Z,99741.84
2022-12-26T09:58:06.207Z,99749.66
2022-12-26T10:00:42.988Z,99756.59
2022-12-26T10:03:13.008Z,99741.06
2022-12-26T10:06:04.382Z,99752.25
2022-12-26T10:08:47.387Z,99748.84
2022-12-26T10:11:26.007Z,99760.16
2022-12-26T10:14:05.437Z,99756.75
2022-12-26T10:16:49.957Z,99753.31
2022-12-26T10:19:42.776Z,99755.09
2022-12-26T10:22:39.694Z,99758.56
2022-12-26T10:25:19.707Z,99751.69
2022-12-26T10:27:50.773Z,99764.69
2022-12-26T10:30:24.676Z,99752.56
2022-12-26T10:32:57.171Z,99751.81
2022-12-26T10:35:32.637Z,99738.88
2022-12-26T10:38:11.872Z,99748.38
2022-12-26T10:40:45.059Z,99734.53
2022-12-26T10:43:25.652Z,99740.63
2022-12-26T10:46:14.774Z,99731.13
2022-12-26T10:48:43.641Z,99720.75
2022-12-26T10:51:13.031Z,99725.97
2022-12-26T10:53:47.979Z,99733.81
2022-12-26T10:56:18.491Z,99729.44
2022-12-26T10:58:48.214Z,99732.84
2022-12-26T11:01:34.283Z,99730.31
2022-12-26T11:04:06.122Z,99735.66
2022-12-26T11:06:39.349Z,99735.69
2022-12-26T11:09:25.017Z,99734.13
2022-12-26T11:11:54.531Z,99719.47
2022-12-26T11:14:34.817Z,99716.91
2022-12-26T11:17:08.354Z,99728.16
2022-12-26T11:19:39.924Z,99726.47
2022-12-26T11:22:27.675Z,99726.47
2022-12-26T11:25:17.268Z,99739.41
2022-12-26T11:27:48.533Z,99742.88
2022-12-26T11:30:26.199Z,99741.09
2022-12-26T11:33:15.257Z,99739.31
2022-12-26T11:35:50.669Z,99740.19
2022-12-26T11:38:43.992Z,99742.78
2022-12-26T11:41:36.356Z,99751.38
2022-12-26T11:44:19.075Z,99736.72
2022-12-26T11:46:53.260Z,99736.72
2022-12-26T11:49:29.975Z,99741.03
2022-12-26T11:52:00.546Z,99736.75
2022-12-26T11:54:36.770Z,99733.34
2022-12-26T11:57:16.935Z,99734.22
2022-12-26T11:59:46.338Z,99728.09
2022-12-26T12:02:23.899Z,99739.41
2022-12-26T12:04:55.774Z,99743.59
2022-12-26T12:08:04.075Z,99739.34
2022-12-26T12:11:17.892Z,99725.50
2022-12-26T12:14:09.951Z,99735.84
2022-12-26T12:16:52.078Z,99740.28
2022-12-26T12:19:36.656Z,99736.88
2022-12-26T12:22:35.817Z,99733.47
2022-12-26T12:25:27.894Z,99724.00
2022-12-26T12:28:08.558Z,99727.41
2022-12-26T12:30:45.940Z,99742.06
2022-12-26T12:33:31.569Z,99739.41
2022-12-26T12:36:10.639Z,99732.44
2022-12-26T12:39:12.903Z,99729.75
2022-12-26T12:42:11.267Z,99727.91
2022-12-26T12:45:03.132Z,99735.69
2022-12-26T12:47:46.916Z,99715.78
2022-12-26T12:50:24.356Z,99722.72
2022-12-26T12:53:04.107Z,99728.88
2022-12-26T12:56:00.521Z,99720.97
2022-12-26T12:58:40.937Z,99727.81
2022-12-26T13:01:14.791Z,99727.88
2022-12-26T13:03:55.016Z,99746.84
2022-12-26T13:06:28.783Z,99783.13
2022-12-26T13:09:04.006Z,99794.97
2022-12-26T13:11:38.226Z,99792.59
2022-12-26T13:14:14.527Z,99796.31
2022-12-26T13:16:47.484Z,99790.53
2022-12-26T13:19:23.527Z,99776.97
2022-12-26T13:21:56.136Z,99791.22
2022-12-26T13:24:33.394Z,99788.28
2022-12-26T13:27:06.297Z,99789.75
2022-12-26T13:29:39.377Z,99789.66
2022-12-26T13:32:20.987Z,99791.28
2022-12-26T13:34:52.790Z,99797.22
2022-12-26T13:37:59.255Z,99798.78
2022-12-26T13:40:31.630Z,99810.78
2022-12-26T13:43:25.824Z,99804.72
2022-12-26T13:45:57.523Z,99814.91
2022-12-26T13:48:57.065Z,99811.31
2022-12-26T13:51:57.776Z,99817.22
2022-12-26T13:54:29.514Z,99820.69
2022-12-26T13:57:32.612Z,99837.97
2022-12-26T14:00:18.970Z,99829.47
2022-12-26T14:03:33.781Z,99839.75
2022-12-26T14:06:39.558Z,99835.53
2022-12-26T14:09:35.404Z,99838.16
2022-12-26T14:12:29.651Z,99843.34
2022-12-26T14:15:16.456Z,99851.19
2022-12-26T14:18:03.563Z,99852.06
2022-12-26T14:20:43.777Z,99846.00
2022-12-26T14:23:33.320Z,99862.34
2022-12-26T14:26:22.933Z,99862.22
2022-12-26T14:29:02.959Z,99873.34
2022-12-26T14:31:39.725Z,99882.69
2022-12-26T14:34:25.245Z,99894.44
2022-12-26T14:37:01.736Z,99893.19
2022-12-26T14:39:41.306Z,99896.16
2022-12-26T14:42:40.503Z,99897.63
2022-12-26T14:45:47.875Z,99905.00
2022-12-26T14:48:49.309Z,99910.75
2022-12-26T14:51:41.244Z,99919.19
2022-12-26T14:54:51.231Z,99924.19
2022-12-26T14:57:49.307Z,99935.19
2022-12-26T15:00:36.530Z,99936.75
2022-12-26T15:03:44.762Z,99940.81
2022-12-26T15:07:05.974Z,99944.97
2022-12-26T15:10:21.501Z,99967.09
2022-12-26T15:13:35.623Z,99965.19
2022-12-26T15:16:28.292Z,99966.78
2022-12-26T15:19:37.876Z,99953.78
2022-12-26T15:23:05.757Z,99971.72
2022-12-26T15:26:11.269Z,99976.81
2022-12-26T15:29:38.797Z,99973.34
2022-12-26T15:32:15.632Z,99976.72
2022-12-26T15:34:58.000Z,99980.09
2022-12-26T15:37:56.529Z,99981.66
2022-12-26T15:40:29.188Z,99997.06
2022-12-26T15:43:39.172Z,100003.03
2022-12-26T15:46:19.362Z,100003.03
2022-12-26T15:49:20.678Z,100008.38
2022-12-26T15:52:02.679Z,100008.50
2022-12-26T15:55:06.919Z,100013.53
2022-12-26T15:57:49.990Z,100027.25
2022-12-26T16:00:22.473Z,100032.25
2022-12-26T16:03:24.001Z,100039.84
2022-12-26T16:05:59.470Z,100042.41
2022-12-26T16:09:14.767Z,100051.78
2022-12-26T16:12:02.068Z,100041.47
2022-12-26T16:14:34.208Z,100044.91
2022-12-26T16:17:21.371Z,100043.31
2022-12-26T16:19:53.564Z,100045.09
2022-12-26T16:22:46.857Z,100053.72
2022-12-26T16:25:19.029Z,100056.31
2022-12-26T16:27:49.561Z,100074.38
2022-12-26T16:30:22.554Z,100066.44
2022-12-26T16:32:52.345Z,100074.84
2022-12-26T16:35:26.196Z,100078.09
2022-12-26T16:37:58.100Z,100091.78
2022-12-26T16:40:30.556Z,100094.19
2022-12-26T16:43:03.095Z,100102.69
2022-12-26T16:45:35.894Z,100108.72
2022-12-26T16:48:08.909Z,100121.66
2022-12-26T16:50:48.457Z,100120.84
2022-12-26T16:53:20.504Z,100120.00
2022-12-26T16:55:51.861Z,100119.06
2022-12-26T16:58:24.720Z,100126.91
2022-12-26T17:01:08.779Z,100128.66
2022-12-26T17:03:50.397Z,100127.75
2022-12-26T17:06:29.189Z,100125.25
2022-12-26T17:09:00.163Z,100140.84
2022-12-26T17:11:32.860Z,100145.22
2022-12-26T17:14:04.095Z,100143.56
2022-12-26T17:16:33.497Z,100155.78
2022-12-26T17:19:15.461Z,100155.06
2022-12-26T17:22:24.188Z,100156.66
2022-12-26T17:24:54.157Z,100161.75
2022-12-26T17:27:25.695Z,100168.59
2022-12-26T17:29:58.042Z,100173.75
2022-12-26T17:32:41.027Z,100168.50
2022-12-26T17:35:15.905Z,100181.25
2022-12-26T17:37:47.584Z,100172.38
2022-12-26T17:40:28.365Z,100178.34
2022-12-26T17:43:09.932Z,100184.31
2022-12-26T17:45:46.223Z,100182.47
2022-12-26T17:48:15.529Z,100191.00
2022-12-26T17:50:47.001Z,100190.09
2022-12-26T17:53:27.089Z,100196.16
2022-12-26T17:55:57.172Z,100195.19
2022-12-26T17:58:26.030Z,100194.13
2022-12-26T18:00:54.719Z,100201.69
2022-12-26T18:03:23.718Z,100197.16
2022-12-26T18:05:52.990Z,100197.06
2022-12-26T18:08:30.512Z,100204.00
2022-12-26T18:10:59.790Z,100211.75
2022-12-26T18:13:29.324Z,100214.34
2022-12-26T18:15:59.283Z,100231.59
2022-12-26T18:18:35.298Z,100238.38
2022-12-26T18:21:06.949Z,100234.81
2022-12-26T18:23:37.128Z,100249.22
2022-12-26T18:26:08.870Z,100252.53
2022-12-26T18:28:37.484Z,100255.81
2022-12-26T18:31:06.086Z,100258.34
2022-12-26T18:33:34.667Z,100258.13
2022-12-26T18:36:07.435Z,100254.41
2022-12-26T18:38:37.660Z,100257.63
2022-12-26T18:41:06.633Z,100260.22
2022-12-26T18:43:35.136Z,100261.91
2022-12-26T18:46:03.600Z,100275.59
2022-12-26T18:48:32.100Z,100280.75
2022-12-26T18:51:02.701Z,100276.38
2022-12-26T18:53:31.217Z,100289.19
2022-12-26T18:56:01.125Z,100293.53
2022-12-26T18:58:32.505Z,100296.13
2022-12-26T19:01:05.936Z,100305.66
2022-12-26T19:03:37.390Z,100311.69
2022-12-26T19:06:06.738Z,100318.66
2022-12-26T19:08:35.398Z,100321.13
2022-12-26T19:11:05.654Z,100328.06
2022-12-26T19:13:36.178Z,100336.59
2022-12-26T19:16:05.087Z,100338.41
2022-12-26T19:18:33.749Z,100343.44
2022-12-26T19:21:02.633Z,100346.94
2022-12-26T19:23:31.094Z,100347.72
2022-12-26T19:25:59.930Z,100349.25
2022-12-26T19:28:30.316Z,100355.88
2022-12-26T19:30:59.037Z,100358.09
2022-12-26T19:33:27.540Z,100363.88
2022-12-26T19:35:57.126Z,100368.03
2022-12-26T19:38:25.533Z,100374.00
2022-12-26T19:40:54.042Z,100379.94
2022-12-26T19:43:22.405Z,100386.88
2022-12-26T19:46:01.117Z,100397.25
2022-12-26T19:48:31.064Z,100399.84
2022-12-26T19:51:02.392Z,100395.59
2022-12-26T19:53:30.942Z,100399.00
2022-12-26T19:55:59.717Z,100402.34
2022-12-26T19:58:31.492Z,100412.69
2022-12-26T20:01:09.262Z,100412.69
2022-12-26T20:03:38.428Z,100419.41
2022-12-26T20:06:12.617Z,100421.19
2022-12-26T20:08:42.743Z,100420.31
2022-12-26T20:11:14.200Z,100433.09
2022-12-26T20:13:44.265Z,100427.94
2022-12-26T20:16:46.076Z,100426.16
2022-12-26T20:19:06.568Z,100432.94
2022-12-26T20:21:35.457Z,100432.72
2022-12-26T20:24:04.079Z,100436.13
2022-12-26T20:26:33.039Z,100429.97
2022-12-26T20:29:02.528Z,100441.06
2022-12-26T20:31:34.649Z,100449.59
2022-12-26T20:34:04.110Z,100433.94
2022-12-26T20:36:35.417Z,100446.75
2022-12-26T20:39:08.165Z,100451.72
2022-12-26T20:41:36.981Z,100459.25
2022-12-26T20:44:05.596Z,100466.88
2022-12-26T20:46:36.634Z,100468.56
2022-12-26T20:49:05.737Z,100459.75
2022-12-26T20:51:38.381Z,100468.50
2022-12-26T20:54:08.787Z,100455.38
2022-12-26T20:56:38.133Z,100466.41
2022-12-26T20:59:07.577Z,100455.88
2022-12-26T21:01:40.277Z,100460.88
2022-12-26T21:04:13.099Z,100450.34
2022-12-26T21:06:45.880Z,100458.78
2022-12-26T21:09:15.204Z,100468.88
2022-12-26T21:11:45.582Z,100473.06
2022-12-26T21:14:17.354Z,100478.91
2022-12-26T21:16:50.251Z,100477.13
2022-12-26T21:19:19.819Z,100471.91
2022-12-26T21:21:51.813Z,100473.47
2022-12-26T21:24:23.938Z,100469.09
2022-12-26T21:26:52.996Z,100477.63
2022-12-26T21:29:26.174Z,100484.56
2022-12-26T21:31:57.424Z,100480.97
2022-12-26T21:34:29.886Z,100483.66
2022-12-26T21:37:17.440Z,100484.56
2022-12-26T21:39:47.110Z,100492.13
2022-12-26T21:42:15.680Z,100492.78
2022-12-26T21:44:45.111Z,100490.22
2022-12-26T21:47:15.327Z,100497.16
2022-12-26T21:49:43.842Z,100500.41
2022-12-26T21:52:12.636Z,100499.63
2022-12-26T21:54:58.827Z,100504.78
2022-12-26T21:57:27.450Z,100503.78
2022-12-26T21:59:59.701Z,100509.75
2022-12-26T22:02:50.614Z,100501.00
2022-12-26T22:05:21.735Z,100507.84
2022-12-26T22:07:54.093Z,100498.44
2022-12-26T22:10:49.021Z,100502.81
2022-12-26T22:13:18.097Z,100495.88
2022-12-26T22:16:04.177Z,100507.97
2022-12-26T22:18:37.567Z,100504.38
2022-12-26T22:21:09.797Z,100518.03
2022-12-26T22:23:39.354Z,100527.44
2022-12-26T22:26:10.896Z,100533.50
2022-12-26T22:28:40.197Z,100534.41
2022-12-26T22:31:09.364Z,100544.03
2022-12-26T22:33:40.850Z,100543.25
2022-12-26T22:36:11.507Z,100556.19
2022-12-26T22:38:40.125Z,100549.38
2022-12-26T22:41:08.824Z,100548.47
2022-12-26T22:43:37.498Z,100550.25
2022-12-26T22:46:06.240Z,100550.16
2022-12-26T22:48:35.039Z,100569.00
2022-12-26T22:51:06.039Z,100559.50
2022-12-26T22:53:34.929Z,100557.59
2022-12-26T22:56:05.157Z,100559.25
2022-12-26T22:58:35.088Z,100556.69
2022-12-26T23:01:04.547Z,100564.22
2022-12-26T23:03:33.029Z,100572.06
2022-12-26T23:06:02.047Z,100571.97
2022-12-26T23:08:33.149Z,100576.31
2022-12-26T23:11:02.352Z,100583.28
2022-12-26T23:13:31.394Z,100580.59
2022-12-26T23:16:11.228Z,100577.13
2022-12-26T23:19:04.819Z,100582.16
2022-12-26T23:21:42.977Z,100582.84
2022-12-26T23:24:18.034Z,100586.22
2022-12-26T23:26:51.000Z,100591.38
2022-12-26T23:29:40.433Z,100598.09
2022-12-26T23:32:11.384Z,100586.78
2022-12-26T23:34:39.858Z,100588.50
2022-12-26T23:37:08.322Z,100594.31
2022-12-26T23:39:38.769Z,100589.16
2022-12-26T23:42:08.025Z,100587.38
2022-12-26T23:44:36.665Z,100591.63
2022-12-26T23:47:05.545Z,100594.13
2022-12-26T23:49:36.702Z,100602.63
2022-12-26T23:52:05.505Z,100594.81
2022-12-26T23:54:33.937Z,100594.81
2022-12-26T23:57:03.760Z,100595.69
2022-12-26T23:59:32.384Z,100603.19
